Pinewood Airport


Codes: 0GE0/
Name: Pinewood Airport
City: Douglasville
Country: United States
Elevation: 1085 ft.

Photos at Pinewood Airport


   Photos courtesy of SpottingLog. You can add your own sightings and photos by signing up for a free trial today.



No photos found.

Weather at Pinewood Airport


Time (UTC)DescriptionTempratureWindCloud coverageVisibilityPressureHumidity
16-Jun-2024 03:00Light Rain27°C7 mph, S33%10000m1016hPa71%
16-Jun-2024 06:00Broken Clouds25°C2 mph, NE62%10000m1016hPa78%
16-Jun-2024 09:00Broken Clouds22°C4 mph, SE77%10000m1017hPa84%
16-Jun-2024 12:00Scattered Clouds24°C4 mph, E43%10000m1018hPa80%
16-Jun-2024 15:00Clear Sky31°C7 mph, SE0%10000m1018hPa46%
16-Jun-2024 18:00Clear Sky35°C9 mph, S7%10000m1017hPa34%
16-Jun-2024 21:00Overcast Clouds30°C4 mph, NE100%10000m1016hPa51%
17-Jun-2024 00:00Overcast Clouds27°C2 mph, NE100%10000m1017hPa52%
17-Jun-2024 03:00Overcast Clouds27°C4 mph, E100%10000m1018hPa55%
17-Jun-2024 06:00Overcast Clouds24°C7 mph, SE85%10000m1019hPa68%
17-Jun-2024 09:00Scattered Clouds23°C7 mph, SE36%10000m1019hPa73%
17-Jun-2024 12:00Scattered Clouds23°C7 mph, SE31%10000m1021hPa76%
17-Jun-2024 15:00Overcast Clouds29°C9 mph, SE90%10000m1020hPa52%
17-Jun-2024 18:00Overcast Clouds33°C9 mph, SE94%10000m1019hPa40%
17-Jun-2024 21:00Light Rain33°C7 mph, SE100%10000m1017hPa34%
18-Jun-2024 00:00Overcast Clouds29°C7 mph, SE98%10000m1017hPa48%
18-Jun-2024 03:00Overcast Clouds27°C4 mph, SE89%10000m1019hPa53%
18-Jun-2024 06:00Overcast Clouds23°C7 mph, SE93%10000m1020hPa58%
18-Jun-2024 09:00Broken Clouds22°C7 mph, SE73%10000m1020hPa62%
18-Jun-2024 12:00Overcast Clouds22°C9 mph, E86%10000m1021hPa76%
18-Jun-2024 15:00Overcast Clouds27°C11 mph, E100%10000m1021hPa49%
18-Jun-2024 18:00Overcast Clouds30°C11 mph, SE100%10000m1020hPa32%
18-Jun-2024 21:00Overcast Clouds31°C11 mph, SE100%10000m1018hPa26%
19-Jun-2024 00:00Overcast Clouds26°C4 mph, SE100%10000m1019hPa46%
19-Jun-2024 03:00Overcast Clouds25°C2 mph, E100%10000m1020hPa49%
19-Jun-2024 06:00Overcast Clouds23°C9 mph, SE100%10000m1020hPa58%
19-Jun-2024 09:00Overcast Clouds21°C7 mph, SE100%10000m1022hPa68%
19-Jun-2024 12:00Overcast Clouds21°C9 mph, E100%10000m1023hPa74%
19-Jun-2024 15:00Overcast Clouds25°C11 mph, E100%10000m1024hPa55%
19-Jun-2024 18:00Overcast Clouds29°C11 mph, E100%10000m1022hPa41%
19-Jun-2024 21:00Overcast Clouds30°C11 mph, E100%10000m1020hPa40%
20-Jun-2024 00:00Overcast Clouds28°C7 mph, E100%10000m1020hPa48%
20-Jun-2024 03:00Overcast Clouds24°C2 mph, E100%10000m1021hPa56%
20-Jun-2024 06:00Broken Clouds22°C4 mph, SE67%10000m1022hPa62%
20-Jun-2024 09:00Clear Sky19°C2 mph, E4%10000m1023hPa76%
20-Jun-2024 12:00Clear Sky21°C9 mph, NE2%10000m1024hPa66%
20-Jun-2024 15:00Clear Sky27°C13 mph, E0%10000m1024hPa43%
20-Jun-2024 18:00Clear Sky31°C11 mph, E0%10000m1022hPa31%
20-Jun-2024 21:00Few Clouds32°C11 mph, E21%10000m1020hPa35%
21-Jun-2024 00:00Scattered Clouds29°C9 mph, E46%10000m1021hPa50%